sensor_id;sensor_type;location;lat;lon;timestamp;pressure;altitude;pressure_sealevel;temperature;humidity
9899;BME280;4988;49.238;6.698;2023-11-21T00:01:54;98492.16;;;8.48;100.00
9899;BME280;4988;49.238;6.698;2023-11-21T00:04:19;98495.78;;;8.45;100.00
9899;BME280;4988;49.238;6.698;2023-11-21T00:06:44;98493.09;;;8.47;100.00
9899;BME280;4988;49.238;6.698;2023-11-21T00:09:12;98496.59;;;8.47;100.00
9899;BME280;4988;49.238;6.698;2023-11-21T00:11:38;98502.69;;;8.49;100.00
9899;BME280;4988;49.238;6.698;2023-11-21T00:14:03;98502.75;;;8.48;100.00
9899;BME280;4988;49.238;6.698;2023-11-21T00:16:29;98504.59;;;8.46;100.00
9899;BME280;4988;49.238;6.698;2023-11-21T00:18:54;98501.09;;;8.45;100.00
9899;BME280;4988;49.238;6.698;2023-11-21T00:21:20;98505.59;;;8.43;100.00
9899;BME280;4988;49.238;6.698;2023-11-21T00:23:45;98507.25;;;8.46;100.00
9899;BME280;4988;49.238;6.698;2023-11-21T00:26:10;98514.16;;;8.50;100.00
9899;BME280;4988;49.238;6.698;2023-11-21T00:28:36;98510.56;;;8.51;100.00
9899;BME280;4988;49.238;6.698;2023-11-21T00:31:01;98509.00;;;8.47;100.00
9899;BME280;4988;49.238;6.698;2023-11-21T00:33:26;98508.06;;;8.48;100.00
9899;BME280;4988;49.238;6.698;2023-11-21T00:35:52;98503.56;;;8.50;100.00
9899;BME280;4988;49.238;6.698;2023-11-21T00:38:17;98511.50;;;8.50;100.00
9899;BME280;4988;49.238;6.698;2023-11-21T00:40:46;98508.88;;;8.50;100.00
9899;BME280;4988;49.238;6.698;2023-11-21T00:43:11;98512.19;;;8.53;100.00
9899;BME280;4988;49.238;6.698;2023-11-21T00:45:36;98512.28;;;8.52;100.00
9899;BME280;4988;49.238;6.698;2023-11-21T00:48:02;98515.09;;;8.49;100.00
9899;BME280;4988;49.238;6.698;2023-11-21T00:50:30;98507.31;;;8.44;100.00
9899;BME280;4988;49.238;6.698;2023-11-21T00:52:55;98511.09;;;8.38;100.00
9899;BME280;4988;49.238;6.698;2023-11-21T00:55:21;98503.94;;;8.41;100.00
9899;BME280;4988;49.238;6.698;2023-11-21T00:57:46;98508.53;;;8.37;100.00
9899;BME280;4988;49.238;6.698;2023-11-21T01:00:12;98508.69;;;8.34;100.00
9899;BME280;4988;49.238;6.698;2023-11-21T01:02:42;98506.91;;;8.34;100.00
9899;BME280;4988;49.238;6.698;2023-11-21T01:05:08;98504.16;;;8.36;100.00
9899;BME280;4988;49.238;6.698;2023-11-21T01:07:34;98505.09;;;8.35;100.00
9899;BME280;4988;49.238;6.698;2023-11-21T01:09:59;98512.03;;;8.37;100.00
9899;BME280;4988;49.238;6.698;2023-11-21T01:12:24;98503.41;;;8.34;100.00
9899;BME280;4988;49.238;6.698;2023-11-21T01:14:50;98507.81;;;8.33;100.00
9899;BME280;4988;49.238;6.698;2023-11-21T01:17:16;98502.53;;;8.33;100.00
9899;BME280;4988;49.238;6.698;2023-11-21T01:19:42;98505.25;;;8.32;100.00
9899;BME280;4988;49.238;6.698;2023-11-21T01:22:07;98506.97;;;8.33;100.00
9899;BME280;4988;49.238;6.698;2023-11-21T01:24:33;98519.44;;;8.31;100.00
9899;BME280;4988;49.238;6.698;2023-11-21T01:26:59;98515.06;;;8.30;100.00
9899;BME280;4988;49.238;6.698;2023-11-21T01:29:24;98516.88;;;8.29;100.00
9899;BME280;4988;49.238;6.698;2023-11-21T01:31:49;98519.53;;;8.29;100.00
9899;BME280;4988;49.238;6.698;2023-11-21T01:34:15;98525.75;;;8.28;100.00
9899;BME280;4988;49.238;6.698;2023-11-21T01:36:40;98531.19;;;8.25;100.00
9899;BME280;4988;49.238;6.698;2023-11-21T01:39:05;98530.34;;;8.25;100.00
9899;BME280;4988;49.238;6.698;2023-11-21T01:41:33;98527.59;;;8.26;100.00
9899;BME280;4988;49.238;6.698;2023-11-21T01:44:00;98527.75;;;8.23;100.00
9899;BME280;4988;49.238;6.698;2023-11-21T01:46:25;98529.63;;;8.21;100.00
9899;BME280;4988;49.238;6.698;2023-11-21T01:48:51;98533.91;;;8.24;100.00
9899;BME280;4988;49.238;6.698;2023-11-21T01:51:18;98540.09;;;8.24;100.00
9899;BME280;4988;49.238;6.698;2023-11-21T01:53:44;98534.78;;;8.24;100.00
9899;BME280;4988;49.238;6.698;2023-11-21T01:56:12;98534.78;;;8.24;100.00
9899;BME280;4988;49.238;6.698;2023-11-21T01:58:37;98526.84;;;8.24;100.00
9899;BME280;4988;49.238;6.698;2023-11-21T02:01:03;98526.97;;;8.21;100.00
9899;BME280;4988;49.238;6.698;2023-11-21T02:03:29;98538.66;;;8.17;100.00
9899;BME280;4988;49.238;6.698;2023-11-21T02:05:54;98540.09;;;8.24;100.00
9899;BME280;4988;49.238;6.698;2023-11-21T02:08:19;98534.78;;;8.24;100.00
9899;BME280;4988;49.238;6.698;2023-11-21T02:10:45;98540.22;;;8.21;100.00
9899;BME280;4988;49.238;6.698;2023-11-21T02:13:10;98531.06;;;8.28;100.00
9899;BME280;4988;49.238;6.698;2023-11-21T02:15:36;98541.66;;;8.28;100.00
9899;BME280;4988;49.238;6.698;2023-11-21T02:18:03;98535.63;;;8.25;100.00
9899;BME280;4988;49.238;6.698;2023-11-21T02:20:31;98535.91;;;8.37;100.00
9899;BME280;4988;49.238;6.698;2023-11-21T02:22:57;98545.88;;;8.32;100.00
9899;BME280;4988;49.238;6.698;2023-11-21T02:25:27;98542.94;;;8.38;100.00
9899;BME280;4988;49.238;6.698;2023-11-21T02:27:53;98544.94;;;8.33;100.00
9899;BME280;4988;49.238;6.698;2023-11-21T02:30:20;98549.44;;;8.31;100.00
9899;BME280;4988;49.238;6.698;2023-11-21T02:32:49;98542.75;;;8.24;100.00
9899;BME280;4988;49.238;6.698;2023-11-21T02:35:15;98544.72;;;8.19;100.00
9899;BME280;4988;49.238;6.698;2023-11-21T02:37:43;98552.63;;;8.20;100.00
9899;BME280;4988;49.238;6.698;2023-11-21T02:40:10;98550.97;;;8.18;100.00
9899;BME280;4988;49.238;6.698;2023-11-21T02:42:37;98549.25;;;8.17;100.00
9899;BME280;4988;49.238;6.698;2023-11-21T02:45:03;98558.69;;;8.23;100.00
9899;BME280;4988;49.238;6.698;2023-11-21T02:47:28;98552.53;;;8.22;100.00
9899;BME280;4988;49.238;6.698;2023-11-21T02:49:54;98549.09;;;8.20;100.00
9899;BME280;4988;49.238;6.698;2023-11-21T02:52:19;98548.25;;;8.19;100.00
9899;BME280;4988;49.238;6.698;2023-11-21T02:54:44;98554.56;;;8.17;100.00
9899;BME280;4988;49.238;6.698;2023-11-21T02:57:10;98545.31;;;8.26;100.00
9899;BME280;4988;49.238;6.698;2023-11-21T02:59:35;98546.44;;;8.20;100.00
9899;BME280;4988;49.238;6.698;2023-11-21T03:02:00;98542.34;;;8.13;100.00
9899;BME280;4988;49.238;6.698;2023-11-21T03:04:26;98545.09;;;8.11;100.00
9899;BME280;4988;49.238;6.698;2023-11-21T03:06:51;98545.81;;;8.15;100.00
9899;BME280;4988;49.238;6.698;2023-11-21T03:09:16;98550.19;;;8.16;100.00
9899;BME280;4988;49.238;6.698;2023-11-21T03:11:42;98551.03;;;8.16;100.00
9899;BME280;4988;49.238;6.698;2023-11-21T03:14:07;98554.88;;;8.09;100.00
9899;BME280;4988;49.238;6.698;2023-11-21T03:16:33;98556.28;;;8.18;100.00
9899;BME280;4988;49.238;6.698;2023-11-21T03:18:58;98557.50;;;8.30;100.00
9899;BME280;4988;49.238;6.698;2023-11-21T03:21:24;98556.47;;;8.32;100.00
9899;BME280;4988;49.238;6.698;2023-11-21T03:23:50;98558.66;;;8.24;100.00
9899;BME280;4988;49.238;6.698;2023-11-21T03:26:15;98563.66;;;8.30;100.00
9899;BME280;4988;49.238;6.698;2023-11-21T03:28:41;98574.31;;;8.29;100.00
9899;BME280;4988;49.238;6.698;2023-11-21T03:31:07;98564.00;;;8.23;100.00
9899;BME280;4988;49.238;6.698;2023-11-21T03:33:34;98571.63;;;8.30;100.00
9899;BME280;4988;49.238;6.698;2023-11-21T03:36:00;98575.56;;;8.41;100.00
9899;BME280;4988;49.238;6.698;2023-11-21T03:38:25;98576.28;;;8.44;100.00
9899;BME280;4988;49.238;6.698;2023-11-21T03:40:51;98580.41;;;8.51;100.00
9899;BME280;4988;49.238;6.698;2023-11-21T03:43:16;98578.81;;;8.47;100.00
9899;BME280;4988;49.238;6.698;2023-11-21T03:45:41;98574.84;;;8.37;100.00
9899;BME280;4988;49.238;6.698;2023-11-21T03:48:07;98577.38;;;8.40;100.00
9899;BME280;4988;49.238;6.698;2023-11-21T03:50:32;98577.66;;;8.34;100.00
9899;BME280;4988;49.238;6.698;2023-11-21T03:52:58;98576.06;;;8.30;100.00
9899;BME280;4988;49.238;6.698;2023-11-21T03:55:23;98583.28;;;8.26;100.00
9899;BME280;4988;49.238;6.698;2023-11-21T03:57:50;98585.28;;;8.21;100.00
9899;BME280;4988;49.238;6.698;2023-11-21T04:00:16;98579.34;;;8.16;100.00
9899;BME280;4988;49.238;6.698;2023-11-21T04:02:42;98579.47;;;8.13;100.00
9899;BME280;4988;49.238;6.698;2023-11-21T04:05:07;98590.59;;;8.21;100.00
9899;BME280;4988;49.238;6.698;2023-11-21T04:07:34;98591.31;;;8.25;100.00
9899;BME280;4988;49.238;6.698;2023-11-21T04:09:59;98592.84;;;8.30;100.00
9899;BME280;4988;49.238;6.698;2023-11-21T04:12:25;98593.59;;;8.32;100.00
9899;BME280;4988;49.238;6.698;2023-11-21T04:14:50;98598.16;;;8.30;100.00
9899;BME280;4988;49.238;6.698;2023-11-21T04:17:18;98601.53;;;8.34;100.00
9899;BME280;4988;49.238;6.698;2023-11-21T04:19:43;98598.88;;;8.34;100.00
9899;BME280;4988;49.238;6.698;2023-11-21T04:22:08;98602.44;;;8.33;100.00
9899;BME280;4988;49.238;6.698;2023-11-21T04:24:34;98605.47;;;8.44;100.00
9899;BME280;4988;49.238;6.698;2023-11-21T04:26:59;98609.25;;;8.38;100.00
9899;BME280;4988;49.238;6.698;2023-11-21T04:29:24;98605.53;;;8.43;100.00
9899;BME280;4988;49.238;6.698;2023-11-21T04:31:50;98608.31;;;8.40;100.00
9899;BME280;4988;49.238;6.698;2023-11-21T04:34:15;98617.75;;;8.47;100.00
9899;BME280;4988;49.238;6.698;2023-11-21T04:36:40;98611.03;;;8.38;100.00
9899;BME280;4988;49.238;6.698;2023-11-21T04:39:06;98612.91;;;8.36;100.00
9899;BME280;4988;49.238;6.698;2023-11-21T04:41:32;98617.63;;;8.29;100.00
9899;BME280;4988;49.238;6.698;2023-11-21T04:43:57;98620.13;;;8.32;100.00
9899;BME280;4988;49.238;6.698;2023-11-21T04:46:23;98628.88;;;8.34;100.00
9899;BME280;4988;49.238;6.698;2023-11-21T04:48:49;98639.78;;;8.28;100.00
9899;BME280;4988;49.238;6.698;2023-11-21T04:51:14;98632.34;;;8.36;100.00
9899;BME280;4988;49.238;6.698;2023-11-21T04:53:39;98640.13;;;8.40;100.00
9899;BME280;4988;49.238;6.698;2023-11-21T04:56:05;98643.88;;;8.35;100.00
9899;BME280;4988;49.238;6.698;2023-11-21T04:58:31;98645.66;;;8.35;100.00
9899;BME280;4988;49.238;6.698;2023-11-21T05:00:57;98645.16;;;8.27;100.00
9899;BME280;4988;49.238;6.698;2023-11-21T05:03:22;98650.03;;;8.36;100.00
9899;BME280;4988;49.238;6.698;2023-11-21T05:05:48;98649.91;;;8.39;100.00
9899;BME280;4988;49.238;6.698;2023-11-21T05:08:14;98664.88;;;8.40;100.00
9899;BME280;4988;49.238;6.698;2023-11-21T05:10:39;98651.66;;;8.38;100.00
9899;BME280;4988;49.238;6.698;2023-11-21T05:13:04;98656.84;;;8.42;100.00
9899;BME280;4988;49.238;6.698;2023-11-21T05:15:34;98660.56;;;8.37;100.00
9899;BME280;4988;49.238;6.698;2023-11-21T05:18:00;98661.28;;;8.41;100.00
9899;BME280;4988;49.238;6.698;2023-11-21T05:20:25;98664.72;;;8.43;100.00
9899;BME280;4988;49.238;6.698;2023-11-21T05:22:51;98662.94;;;8.44;100.00
9899;BME280;4988;49.238;6.698;2023-11-21T05:25:17;98670.84;;;8.45;100.00
9899;BME280;4988;49.238;6.698;2023-11-21T05:27:44;98674.34;;;8.46;100.00
9899;BME280;4988;49.238;6.698;2023-11-21T05:30:10;98674.09;;;8.52;100.00
9899;BME280;4988;49.238;6.698;2023-11-21T05:32:37;98671.69;;;8.46;100.00
9899;BME280;4988;49.238;6.698;2023-11-21T05:35:03;98684.56;;;8.34;100.00
9899;BME280;4988;49.238;6.698;2023-11-21T05:37:29;98679.81;;;8.43;100.00
9899;BME280;4988;49.238;6.698;2023-11-21T05:39:55;98681.13;;;8.32;100.00
9899;BME280;4988;49.238;6.698;2023-11-21T05:42:23;98696.31;;;8.29;100.00
9899;BME280;4988;49.238;6.698;2023-11-21T05:44:48;98691.59;;;8.35;100.00
9899;BME280;4988;49.238;6.698;2023-11-21T05:47:14;98702.47;;;8.29;100.00
9899;BME280;4988;49.238;6.698;2023-11-21T05:49:39;98695.03;;;8.37;100.00
9899;BME280;4988;49.238;6.698;2023-11-21T05:52:05;98697.75;;;8.36;100.00
9899;BME280;4988;49.238;6.698;2023-11-21T05:54:31;98704.47;;;8.24;100.00
9899;BME280;4988;49.238;6.698;2023-11-21T05:56:56;98707.53;;;8.15;100.00
9899;BME280;4988;49.238;6.698;2023-11-21T05:59:21;98708.84;;;8.25;100.00
9899;BME280;4988;49.238;6.698;2023-11-21T06:01:47;98703.69;;;8.22;100.00
9899;BME280;4988;49.238;6.698;2023-11-21T06:04:13;98706.06;;;8.28;100.00
9899;BME280;4988;49.238;6.698;2023-11-21T06:06:38;98712.63;;;8.19;100.00
9899;BME280;4988;49.238;6.698;2023-11-21T06:09:04;98712.63;;;8.19;100.00
9899;BME280;4988;49.238;6.698;2023-11-21T06:11:31;98719.31;;;8.28;100.00
9899;BME280;4988;49.238;6.698;2023-11-21T06:13:56;98721.03;;;8.29;100.00
9899;BME280;4988;49.238;6.698;2023-11-21T06:16:21;98727.19;;;8.30;100.00
9899;BME280;4988;49.238;6.698;2023-11-21T06:18:47;98722.56;;;8.35;100.00
9899;BME280;4988;49.238;6.698;2023-11-21T06:21:12;98735.53;;;8.41;100.00
9899;BME280;4988;49.238;6.698;2023-11-21T06:23:38;98733.59;;;8.46;100.00
9899;BME280;4988;49.238;6.698;2023-11-21T06:26:04;98739.63;;;8.50;100.00
9899;BME280;4988;49.238;6.698;2023-11-21T06:28:31;98744.69;;;8.56;100.00
9899;BME280;4988;49.238;6.698;2023-11-21T06:30:56;98744.59;;;8.58;100.00
9899;BME280;4988;49.238;6.698;2023-11-21T06:33:23;98743.06;;;8.52;100.00
9899;BME280;4988;49.238;6.698;2023-11-21T06:35:48;98739.28;;;8.58;100.00
9899;BME280;4988;49.238;6.698;2023-11-21T06:38:14;98749.63;;;8.64;100.00
9899;BME280;4988;49.238;6.698;2023-11-21T06:40:40;98745.16;;;8.64;100.00
9899;BME280;4988;49.238;6.698;2023-11-21T06:43:06;98747.91;;;8.63;100.00
9899;BME280;4988;49.238;6.698;2023-11-21T06:45:32;98752.22;;;8.65;100.00
9899;BME280;4988;49.238;6.698;2023-11-21T06:47:59;98752.22;;;8.65;100.00
9899;BME280;4988;49.238;6.698;2023-11-21T06:50:24;98762.75;;;8.67;100.00
9899;BME280;4988;49.238;6.698;2023-11-21T06:52:49;98763.66;;;8.66;100.00
9899;BME280;4988;49.238;6.698;2023-11-21T06:55:15;98773.69;;;8.59;100.00
9899;BME280;4988;49.238;6.698;2023-11-21T06:57:41;98776.56;;;8.55;100.00
9899;BME280;4988;49.238;6.698;2023-11-21T07:00:07;98776.03;;;8.46;100.00
9899;BME280;4988;49.238;6.698;2023-11-21T07:02:34;98785.44;;;8.53;100.00
9899;BME280;4988;49.238;6.698;2023-11-21T07:04:59;98789.31;;;8.45;100.00
9899;BME280;4988;49.238;6.698;2023-11-21T07:07:25;98801.00;;;8.41;100.00
9899;BME280;4988;49.238;6.698;2023-11-21T07:09:50;98805.97;;;8.50;100.00
9899;BME280;4988;49.238;6.698;2023-11-21T07:12:17;98809.75;;;8.43;100.00
9899;BME280;4988;49.238;6.698;2023-11-21T07:14:43;98816.44;;;8.31;100.00
9899;BME280;4988;49.238;6.698;2023-11-21T07:17:12;98817.81;;;8.19;100.00
9899;BME280;4988;49.238;6.698;2023-11-21T07:19:38;98826.00;;;8.13;100.00
9899;BME280;4988;49.238;6.698;2023-11-21T07:22:03;98839.47;;;8.08;100.00
9899;BME280;4988;49.238;6.698;2023-11-21T07:24:31;98835.09;;;8.07;100.00
9899;BME280;4988;49.238;6.698;2023-11-21T07:26:57;98846.56;;;8.08;100.00
9899;BME280;4988;49.238;6.698;2023-11-21T07:29:25;98854.31;;;8.12;100.00
9899;BME280;4988;49.238;6.698;2023-11-21T07:31:54;98843.28;;;8.23;100.00
9899;BME280;4988;49.238;6.698;2023-11-21T07:34:20;98851.66;;;8.34;100.00
9899;BME280;4988;49.238;6.698;2023-11-21T07:36:46;98853.72;;;8.50;100.00
9899;BME280;4988;49.238;6.698;2023-11-21T07:39:11;98856.34;;;8.50;100.00
9899;BME280;4988;49.238;6.698;2023-11-21T07:41:36;98864.16;;;8.53;100.00
9899;BME280;4988;49.238;6.698;2023-11-21T07:44:03;98861.41;;;8.56;100.00
9899;BME280;4988;49.238;6.698;2023-11-21T07:46:29;98867.16;;;8.44;100.00
9899;BME280;4988;49.238;6.698;2023-11-21T07:48:54;98858.34;;;8.43;100.00
9899;BME280;4988;49.238;6.698;2023-11-21T07:51:20;98866.16;;;8.48;100.00
9899;BME280;4988;49.238;6.698;2023-11-21T07:53:45;98867.97;;;8.46;100.00
9899;BME280;4988;49.238;6.698;2023-11-21T07:56:11;98866.25;;;8.45;100.00
9899;BME280;4988;49.238;6.698;2023-11-21T07:58:36;98870.28;;;8.55;100.00
9899;BME280;4988;49.238;6.698;2023-11-21T08:01:03;98870.22;;;8.57;100.00
9899;BME280;4988;49.238;6.698;2023-11-21T08:03:28;98877.84;;;8.64;100.00
9899;BME280;4988;49.238;6.698;2023-11-21T08:05:58;98877.06;;;8.62;100.00
9899;BME280;4988;49.238;6.698;2023-11-21T08:08:24;98874.25;;;8.65;100.00
9899;BME280;4988;49.238;6.698;2023-11-21T08:10:50;98883.75;;;8.71;100.00
9899;BME280;4988;49.238;6.698;2023-11-21T08:13:22;98884.69;;;8.70;100.00
9899;BME280;4988;49.238;6.698;2023-11-21T08:15:48;98878.84;;;8.62;100.00
9899;BME280;4988;49.238;6.698;2023-11-21T08:18:13;98892.47;;;8.75;100.00
9899;BME280;4988;49.238;6.698;2023-11-21T08:20:40;98902.13;;;8.76;100.00
9899;BME280;4988;49.238;6.698;2023-11-21T08:23:05;98903.84;;;8.77;100.00
9899;BME280;4988;49.238;6.698;2023-11-21T08:25:31;98897.34;;;8.84;100.00
9899;BME280;4988;49.238;6.698;2023-11-21T08:27:57;98904.13;;;8.91;100.00
9899;BME280;4988;49.238;6.698;2023-11-21T08:30:23;98906.66;;;8.94;100.00
9899;BME280;4988;49.238;6.698;2023-11-21T08:32:52;98921.63;;;8.95;100.00
9899;BME280;4988;49.238;6.698;2023-11-21T08:35:18;98917.94;;;8.99;100.00
9899;BME280;4988;49.238;6.698;2023-11-21T08:37:44;98918.13;;;8.95;100.00
9899;BME280;4988;49.238;6.698;2023-11-21T08:40:10;98921.53;;;8.98;100.00
9899;BME280;4988;49.238;6.698;2023-11-21T08:42:37;98920.59;;;8.99;100.00
9899;BME280;4988;49.238;6.698;2023-11-21T08:45:03;98921.44;;;9.00;100.00
9899;BME280;4988;49.238;6.698;2023-11-21T08:47:28;98923.91;;;9.05;100.00
9899;BME280;4988;49.238;6.698;2023-11-21T08:49:54;98928.31;;;9.06;100.00
9899;BME280;4988;49.238;6.698;2023-11-21T08:52:19;98928.41;;;9.02;100.00
9899;BME280;4988;49.238;6.698;2023-11-21T08:54:50;98930.16;;;9.04;100.00
9899;BME280;4988;49.238;6.698;2023-11-21T08:57:22;98931.81;;;9.06;100.00
9899;BME280;4988;49.238;6.698;2023-11-21T08:59:47;98930.88;;;9.07;100.00
9899;BME280;4988;49.238;6.698;2023-11-21T09:02:12;98937.13;;;9.06;100.00
9899;BME280;4988;49.238;6.698;2023-11-21T09:04:37;98926.22;;;9.12;100.00
9899;BME280;4988;49.238;6.698;2023-11-21T09:07:03;98932.91;;;9.21;100.00
9899;BME280;4988;49.238;6.698;2023-11-21T09:09:28;98937.19;;;9.25;100.00
9899;BME280;4988;49.238;6.698;2023-11-21T09:11:54;98932.59;;;9.29;100.00
9899;BME280;4988;49.238;6.698;2023-11-21T09:14:20;98937.66;;;9.35;100.00
9899;BME280;4988;49.238;6.698;2023-11-21T09:16:45;98934.00;;;9.38;100.00
9899;BME280;4988;49.238;6.698;2023-11-21T09:19:11;98929.69;;;9.35;100.00
9899;BME280;4988;49.238;6.698;2023-11-21T09:21:36;98933.50;;;9.48;100.00
9899;BME280;4988;49.238;6.698;2023-11-21T09:24:02;98933.56;;;9.47;100.00
9899;BME280;4988;49.238;6.698;2023-11-21T09:26:28;98934.22;;;9.52;100.00
9899;BME280;4988;49.238;6.698;2023-11-21T09:28:55;98946.53;;;9.55;100.00
9899;BME280;4988;49.238;6.698;2023-11-21T09:31:22;98947.66;;;9.49;100.00
9899;BME280;4988;49.238;6.698;2023-11-21T09:33:48;98943.97;;;9.32;100.00
9899;BME280;4988;49.238;6.698;2023-11-21T09:36:13;98952.97;;;9.28;100.00
9899;BME280;4988;49.238;6.698;2023-11-21T09:38:39;98962.66;;;9.09;100.00
9899;BME280;4988;49.238;6.698;2023-11-21T09:41:15;98964.59;;;9.05;100.00
9899;BME280;4988;49.238;6.698;2023-11-21T09:43:44;98965.34;;;8.88;100.00
9899;BME280;4988;49.238;6.698;2023-11-21T09:46:12;98971.09;;;8.98;100.00
9899;BME280;4988;49.238;6.698;2023-11-21T09:48:45;98972.91;;;9.18;100.00
9899;BME280;4988;49.238;6.698;2023-11-21T09:51:12;98980.53;;;9.26;100.00
9899;BME280;4988;49.238;6.698;2023-11-21T09:53:38;98972.91;;;9.39;100.00
9899;BME280;4988;49.238;6.698;2023-11-21T09:56:04;98964.44;;;9.49;100.00
9899;BME280;4988;49.238;6.698;2023-11-21T09:58:30;98967.44;;;9.62;100.00
9899;BME280;4988;49.238;6.698;2023-11-21T10:00:59;98980.25;;;9.73;100.00
9899;BME280;4988;49.238;6.698;2023-11-21T10:03:25;98978.31;;;9.77;100.00
9899;BME280;4988;49.238;6.698;2023-11-21T10:05:50;98982.47;;;9.82;100.00
9899;BME280;4988;49.238;6.698;2023-11-21T10:08:16;98987.56;;;9.87;100.00
9899;BME280;4988;49.238;6.698;2023-11-21T10:10:46;98986.56;;;9.90;100.00
9899;BME280;4988;49.238;6.698;2023-11-21T10:13:15;99001.66;;;9.89;100.00
9899;BME280;4988;49.238;6.698;2023-11-21T10:15:49;98999.66;;;9.94;100.00
9899;BME280;4988;49.238;6.698;2023-11-21T10:18:15;98995.19;;;9.95;100.00
9899;BME280;4988;49.238;6.698;2023-11-21T10:20:41;98999.78;;;9.91;100.00
9899;BME280;4988;49.238;6.698;2023-11-21T10:23:07;99001.22;;;9.98;100.00
9899;BME280;4988;49.238;6.698;2023-11-21T10:25:36;98997.78;;;9.96;100.00
9899;BME280;4988;49.238;6.698;2023-11-21T10:28:03;99007.34;;;10.01;100.00
9899;BME280;4988;49.238;6.698;2023-11-21T10:30:35;99006.44;;;10.02;100.00
9899;BME280;4988;49.238;6.698;2023-11-21T10:33:05;99014.44;;;10.00;100.00
9899;BME280;4988;49.238;6.698;2023-11-21T10:35:47;99011.75;;;10.02;100.00
9899;BME280;4988;49.238;6.698;2023-11-21T10:38:19;99005.50;;;10.03;100.00
9899;BME280;4988;49.238;6.698;2023-11-21T10:40:47;99011.47;;;10.08;100.00
9899;BME280;4988;49.238;6.698;2023-11-21T10:43:14;98998.44;;;10.02;100.00
9899;BME280;4988;49.238;6.698;2023-11-21T10:45:43;99001.97;;;10.02;100.00
9899;BME280;4988;49.238;6.698;2023-11-21T10:48:15;99004.41;;;10.07;100.00
9899;BME280;4988;49.238;6.698;2023-11-21T10:50:41;99001.66;;;10.08;100.00
9899;BME280;4988;49.238;6.698;2023-11-21T10:53:06;99004.22;;;10.11;100.00
9899;BME280;4988;49.238;6.698;2023-11-21T10:55:33;99006.78;;;10.13;100.00
9899;BME280;4988;49.238;6.698;2023-11-21T10:58:01;99005.22;;;10.09;100.00
9899;BME280;4988;49.238;6.698;2023-11-21T11:00:29;99011.22;;;10.12;100.00
9899;BME280;4988;49.238;6.698;2023-11-21T11:02:55;99001.47;;;10.13;100.00
9899;BME280;4988;49.238;6.698;2023-11-21T11:05:22;99007.44;;;10.18;99.48
9899;BME280;4988;49.238;6.698;2023-11-21T11:07:52;99013.59;;;10.19;99.63
9899;BME280;4988;49.238;6.698;2023-11-21T11:10:25;99007.44;;;10.18;99.80
9899;BME280;4988;49.238;6.698;2023-11-21T11:12:53;99006.34;;;10.22;100.00
9899;BME280;4988;49.238;6.698;2023-11-21T11:15:19;99004.19;;;10.30;100.00
9899;BME280;4988;49.238;6.698;2023-11-21T11:17:46;99004.19;;;10.30;99.78
9899;BME280;4988;49.238;6.698;2023-11-21T11:20:13;98997.94;;;10.32;99.48
9899;BME280;4988;49.238;6.698;2023-11-21T11:29:10;98999.97;;;10.45;100.00
9899;BME280;4988;49.238;6.698;2023-11-21T11:31:59;99001.63;;;10.48;99.25
9899;BME280;4988;49.238;6.698;2023-11-21T11:37:00;98999.91;;;10.47;97.54
9899;BME280;4988;49.238;6.698;2023-11-21T11:39:28;98997.00;;;10.52;95.44
9899;BME280;4988;49.238;6.698;2023-11-21T11:41:58;98995.22;;;10.52;95.53
9899;BME280;4988;49.238;6.698;2023-11-21T11:47:21;98991.94;;;10.47;94.08
9899;BME280;4988;49.238;6.698;2023-11-21T11:50:06;98993.56;;;10.50;94.81
9899;BME280;4988;49.238;6.698;2023-11-21T11:52:49;98997.31;;;10.45;96.21
9899;BME280;4988;49.238;6.698;2023-11-21T11:55:18;98987.06;;;10.55;96.45
9899;BME280;4988;49.238;6.698;2023-11-21T11:57:45;98994.84;;;10.60;95.68
9899;BME280;4988;49.238;6.698;2023-11-21T12:00:14;98995.56;;;10.64;96.86
9899;BME280;4988;49.238;6.698;2023-11-21T12:02:48;98999.78;;;10.68;96.15
9899;BME280;4988;49.238;6.698;2023-11-21T12:05:15;99006.53;;;10.75;94.95
9899;BME280;4988;49.238;6.698;2023-11-21T12:07:54;99005.59;;;10.76;95.25
9899;BME280;4988;49.238;6.698;2023-11-21T12:10:25;99007.13;;;10.82;94.36
9899;BME280;4988;49.238;6.698;2023-11-21T12:12:53;99004.38;;;10.83;93.41
9899;BME280;4988;49.238;6.698;2023-11-21T12:15:19;99008.28;;;10.76;93.04
9899;BME280;4988;49.238;6.698;2023-11-21T12:17:45;99017.66;;;10.66;94.04
9899;BME280;4988;49.238;6.698;2023-11-21T12:20:12;99018.59;;;10.65;95.26
9899;BME280;4988;49.238;6.698;2023-11-21T12:22:51;99027.81;;;10.57;96.03
9899;BME280;4988;49.238;6.698;2023-11-21T12:25:17;99030.53;;;10.56;96.90
9899;BME280;4988;49.238;6.698;2023-11-21T12:27:48;99035.34;;;10.48;97.48
9899;BME280;4988;49.238;6.698;2023-11-21T12:30:15;99032.78;;;10.46;97.85
9899;BME280;4988;49.238;6.698;2023-11-21T12:32:43;99032.91;;;10.43;98.31
9899;BME280;4988;49.238;6.698;2023-11-21T12:35:09;99024.50;;;10.52;98.20
9899;BME280;4988;49.238;6.698;2023-11-21T12:37:37;99022.97;;;10.46;96.72
9899;BME280;4988;49.238;6.698;2023-11-21T12:40:05;99029.19;;;10.47;97.34
9899;BME280;4988;49.238;6.698;2023-11-21T12:42:31;99031.03;;;10.45;98.01
9899;BME280;4988;49.238;6.698;2023-11-21T12:47:43;99048.88;;;10.43;99.02
9899;BME280;4988;49.238;6.698;2023-11-21T12:50:09;99044.28;;;10.46;99.50
9899;BME280;4988;49.238;6.698;2023-11-21T12:52:44;99039.75;;;10.49;99.76
9899;BME280;4988;49.238;6.698;2023-11-21T12:55:15;99038.88;;;10.48;98.55
9899;BME280;4988;49.238;6.698;2023-11-21T12:57:42;99039.97;;;10.44;98.12
9899;BME280;4988;49.238;6.698;2023-11-21T13:00:08;99037.94;;;10.49;97.43
9899;BME280;4988;49.238;6.698;2023-11-21T13:02:38;99051.41;;;10.46;97.58
9899;BME280;4988;49.238;6.698;2023-11-21T13:05:07;99049.75;;;10.43;97.87
9899;BME280;4988;49.238;6.698;2023-11-21T13:07:42;99047.88;;;10.45;97.24
9899;BME280;4988;49.238;6.698;2023-11-21T13:10:14;99068.22;;;10.46;98.40
9899;BME280;4988;49.238;6.698;2023-11-21T13:12:45;99063.53;;;10.52;98.67
9899;BME280;4988;49.238;6.698;2023-11-21T13:15:16;99068.09;;;10.50;99.15
9899;BME280;4988;49.238;6.698;2023-11-21T13:17:45;99068.94;;;10.50;99.44
9899;BME280;4988;49.238;6.698;2023-11-21T13:20:11;99071.91;;;10.44;97.03
9899;BME280;4988;49.238;6.698;2023-11-21T13:22:51;99080.16;;;10.38;97.64
9899;BME280;4988;49.238;6.698;2023-11-21T13:25:21;99090.59;;;10.42;96.69
9899;BME280;4988;49.238;6.698;2023-11-21T13:27:47;99084.47;;;10.40;95.22
9899;BME280;4988;49.238;6.698;2023-11-21T13:30:13;99081.63;;;10.45;95.86
9899;BME280;4988;49.238;6.698;2023-11-21T13:32:45;99085.63;;;10.54;96.27
9899;BME280;4988;49.238;6.698;2023-11-21T13:35:12;99083.81;;;10.54;96.97